sensor_id;sensor_type;location;lat;lon;timestamp;pressure;altitude;pressure_sealevel;temperature;humidity
20019;BME280;10170;42.502;26.526;2023-02-25T00:00:33;99314.03;;;6.10;100.00
20019;BME280;10170;42.502;26.526;2023-02-25T00:03:00;99319.69;;;6.07;100.00
20019;BME280;10170;42.502;26.526;2023-02-25T00:05:27;99320.72;;;5.91;100.00
20019;BME280;10170;42.502;26.526;2023-02-25T00:07:57;99320.31;;;5.80;100.00
20019;BME280;10170;42.502;26.526;2023-02-25T00:10:24;99294.50;;;5.61;100.00
20019;BME280;10170;42.502;26.526;2023-02-25T00:12:51;99312.53;;;5.72;100.00
20019;BME280;10170;42.502;26.526;2023-02-25T00:15:18;99305.22;;;5.88;100.00
20019;BME280;10170;42.502;26.526;2023-02-25T00:17:45;99305.03;;;6.04;100.00
20019;BME280;10170;42.502;26.526;2023-02-25T00:20:12;99307.16;;;5.94;100.00
20019;BME280;10170;42.502;26.526;2023-02-25T00:22:39;99305.22;;;6.03;100.00
20019;BME280;10170;42.502;26.526;2023-02-25T00:25:07;99312.72;;;6.20;100.00
20019;BME280;10170;42.502;26.526;2023-02-25T00:27:35;99313.47;;;6.14;100.00
20019;BME280;10170;42.502;26.526;2023-02-25T00:30:02;99295.75;;;6.08;100.00
20019;BME280;10170;42.502;26.526;2023-02-25T00:32:29;99303.78;;;6.00;100.00
20019;BME280;10170;42.502;26.526;2023-02-25T00:34:56;99305.66;;;6.06;100.00
20019;BME280;10170;42.502;26.526;2023-02-25T00:37:23;99293.59;;;5.83;100.00
20019;BME280;10170;42.502;26.526;2023-02-25T00:39:50;99288.75;;;5.86;100.00
20019;BME280;10170;42.502;26.526;2023-02-25T00:42:18;99283.13;;;5.75;100.00
20019;BME280;10170;42.502;26.526;2023-02-25T00:44:46;99285.03;;;5.95;100.00
20019;BME280;10170;42.502;26.526;2023-02-25T00:47:15;99279.75;;;5.95;100.00
20019;BME280;10170;42.502;26.526;2023-02-25T00:49:45;99283.34;;;5.88;100.00
20019;BME280;10170;42.502;26.526;2023-02-25T00:52:14;99280.94;;;5.78;100.00
20019;BME280;10170;42.502;26.526;2023-02-25T00:54:41;99270.50;;;5.85;100.00
20019;BME280;10170;42.502;26.526;2023-02-25T00:57:08;99266.50;;;5.89;100.00
20019;BME280;10170;42.502;26.526;2023-02-25T00:59:35;99255.19;;;5.80;100.00
20019;BME280;10170;42.502;26.526;2023-02-25T01:02:02;99262.47;;;5.93;100.00
20019;BME280;10170;42.502;26.526;2023-02-25T01:04:29;99259.78;;;5.72;100.00
20019;BME280;10170;42.502;26.526;2023-02-25T01:06:56;99253.22;;;5.68;100.00
20019;BME280;10170;42.502;26.526;2023-02-25T01:09:23;99257.13;;;5.72;100.00
20019;BME280;10170;42.502;26.526;2023-02-25T01:11:51;99250.13;;;5.79;100.00
20019;BME280;10170;42.502;26.526;2023-02-25T01:14:21;99246.56;;;5.86;100.00
20019;BME280;10170;42.502;26.526;2023-02-25T01:16:49;99242.94;;;5.87;100.00
20019;BME280;10170;42.502;26.526;2023-02-25T01:19:20;99220.03;;;5.88;100.00
20019;BME280;10170;42.502;26.526;2023-02-25T01:21:49;99238.16;;;5.97;100.00
20019;BME280;10170;42.502;26.526;2023-02-25T01:24:28;99242.19;;;5.93;100.00
20019;BME280;10170;42.502;26.526;2023-02-25T01:26:58;99237.03;;;5.85;100.00
20019;BME280;10170;42.502;26.526;2023-02-25T01:29:39;99237.38;;;5.82;100.00
20019;BME280;10170;42.502;26.526;2023-02-25T01:32:09;99209.28;;;5.75;100.00
20019;BME280;10170;42.502;26.526;2023-02-25T01:34:37;99227.94;;;5.73;100.00
20019;BME280;10170;42.502;26.526;2023-02-25T01:37:05;99226.91;;;5.74;100.00
20019;BME280;10170;42.502;26.526;2023-02-25T01:39:32;99231.28;;;5.67;100.00
20019;BME280;10170;42.502;26.526;2023-02-25T01:42:01;99224.13;;;5.61;100.00
20019;BME280;10170;42.502;26.526;2023-02-25T01:44:33;99221.13;;;5.64;100.00
20019;BME280;10170;42.502;26.526;2023-02-25T01:47:03;99214.56;;;5.75;100.00
20019;BME280;10170;42.502;26.526;2023-02-25T01:49:36;99219.63;;;5.76;100.00
20019;BME280;10170;42.502;26.526;2023-02-25T01:52:19;99210.09;;;5.75;100.00
20019;BME280;10170;42.502;26.526;2023-02-25T01:54:53;99210.91;;;5.90;100.00
20019;BME280;10170;42.502;26.526;2023-02-25T01:57:21;99216.94;;;5.84;100.00
20019;BME280;10170;42.502;26.526;2023-02-25T01:59:50;99215.63;;;5.95;100.00
20019;BME280;10170;42.502;26.526;2023-02-25T02:02:21;99215.84;;;5.64;100.00
20019;BME280;10170;42.502;26.526;2023-02-25T02:04:51;99213.88;;;5.52;100.00
20019;BME280;10170;42.502;26.526;2023-02-25T02:07:20;99218.97;;;5.53;100.00
20019;BME280;10170;42.502;26.526;2023-02-25T02:09:48;99218.97;;;5.09;100.00
20019;BME280;10170;42.502;26.526;2023-02-25T02:12:39;99215.53;;;4.94;100.00
20019;BME280;10170;42.502;26.526;2023-02-25T02:15:10;99203.59;;;4.98;100.00
20019;BME280;10170;42.502;26.526;2023-02-25T02:17:58;99188.81;;;4.97;100.00
20019;BME280;10170;42.502;26.526;2023-02-25T02:20:29;99205.00;;;5.09;100.00
20019;BME280;10170;42.502;26.526;2023-02-25T02:31:45;99218.31;;;5.07;100.00
20019;BME280;10170;42.502;26.526;2023-02-25T02:34:40;99212.25;;;5.07;100.00
20019;BME280;10170;42.502;26.526;2023-02-25T02:37:26;99222.59;;;4.94;100.00
20019;BME280;10170;42.502;26.526;2023-02-25T02:45:34;99215.44;;;4.51;100.00
20019;BME280;10170;42.502;26.526;2023-02-25T02:48:09;99211.00;;;4.28;100.00
20019;BME280;10170;42.502;26.526;2023-02-25T02:50:45;99210.41;;;4.26;100.00
20019;BME280;10170;42.502;26.526;2023-02-25T02:53:21;99195.81;;;4.39;100.00
20019;BME280;10170;42.502;26.526;2023-02-25T02:55:52;99123.53;;;3.89;100.00
20019;BME280;10170;42.502;26.526;2023-02-25T02:58:36;99196.38;;;4.49;100.00
20019;BME280;10170;42.502;26.526;2023-02-25T03:01:14;99204.41;;;4.55;100.00
20019;BME280;10170;42.502;26.526;2023-02-25T03:03:50;99193.72;;;4.71;100.00
20019;BME280;10170;42.502;26.526;2023-02-25T03:06:22;99173.25;;;4.59;100.00
20019;BME280;10170;42.502;26.526;2023-02-25T03:09:17;99206.25;;;4.84;100.00
20019;BME280;10170;42.502;26.526;2023-02-25T03:11:46;99198.56;;;4.60;100.00
20019;BME280;10170;42.502;26.526;2023-02-25T03:14:13;99185.56;;;4.44;100.00
20019;BME280;10170;42.502;26.526;2023-02-25T03:19:15;99192.06;;;4.33;100.00
20019;BME280;10170;42.502;26.526;2023-02-25T03:21:54;99202.88;;;4.38;100.00
20019;BME280;10170;42.502;26.526;2023-02-25T03:24:28;99188.63;;;4.32;100.00
20019;BME280;10170;42.502;26.526;2023-02-25T03:26:58;99200.94;;;4.55;100.00
20019;BME280;10170;42.502;26.526;2023-02-25T03:29:25;99200.34;;;4.45;100.00
20019;BME280;10170;42.502;26.526;2023-02-25T03:32:03;99200.75;;;4.56;100.00
20019;BME280;10170;42.502;26.526;2023-02-25T03:34:37;99199.09;;;4.18;100.00
20019;BME280;10170;42.502;26.526;2023-02-25T03:37:12;99193.44;;;4.06;100.00
20019;BME280;10170;42.502;26.526;2023-02-25T03:39:43;99197.19;;;4.12;100.00
20019;BME280;10170;42.502;26.526;2023-02-25T03:42:17;99198.41;;;4.01;100.00
20019;BME280;10170;42.502;26.526;2023-02-25T03:44:49;99204.19;;;3.97;100.00
20019;BME280;10170;42.502;26.526;2023-02-25T03:47:18;99184.03;;;4.12;100.00
20019;BME280;10170;42.502;26.526;2023-02-25T03:52:16;99198.09;;;3.96;100.00
20019;BME280;10170;42.502;26.526;2023-02-25T03:54:50;99172.31;;;3.69;100.00
20019;BME280;10170;42.502;26.526;2023-02-25T03:57:19;99200.59;;;3.67;100.00
20019;BME280;10170;42.502;26.526;2023-02-25T03:59:54;99199.31;;;3.63;100.00
20019;BME280;10170;42.502;26.526;2023-02-25T04:02:31;99207.00;;;3.65;100.00
20019;BME280;10170;42.502;26.526;2023-02-25T04:04:58;99187.94;;;3.71;100.00
20019;BME280;10170;42.502;26.526;2023-02-25T04:07:25;99197.88;;;3.83;100.00
20019;BME280;10170;42.502;26.526;2023-02-25T04:09:52;99172.00;;;3.64;100.00
20019;BME280;10170;42.502;26.526;2023-02-25T04:12:19;99196.13;;;3.68;100.00
20019;BME280;10170;42.502;26.526;2023-02-25T04:14:46;99191.25;;;3.65;100.00
20019;BME280;10170;42.502;26.526;2023-02-25T04:17:13;99185.44;;;3.69;100.00
20019;BME280;10170;42.502;26.526;2023-02-25T04:19:39;99185.19;;;3.87;100.00
20019;BME280;10170;42.502;26.526;2023-02-25T04:22:06;99186.31;;;3.92;100.00
20019;BME280;10170;42.502;26.526;2023-02-25T04:24:33;99190.09;;;3.90;100.00
20019;BME280;10170;42.502;26.526;2023-02-25T04:27:00;99183.69;;;3.92;100.00
20019;BME280;10170;42.502;26.526;2023-02-25T04:29:28;99169.72;;;3.92;100.00
20019;BME280;10170;42.502;26.526;2023-02-25T04:31:55;99180.00;;;4.01;100.00
20019;BME280;10170;42.502;26.526;2023-02-25T04:34:23;99173.09;;;4.00;100.00
20019;BME280;10170;42.502;26.526;2023-02-25T04:36:50;99178.50;;;4.21;100.00
20019;BME280;10170;42.502;26.526;2023-02-25T04:39:17;99173.84;;;3.86;100.00
20019;BME280;10170;42.502;26.526;2023-02-25T04:41:45;99161.00;;;3.69;100.00
20019;BME280;10170;42.502;26.526;2023-02-25T04:44:11;99160.53;;;3.65;100.00
20019;BME280;10170;42.502;26.526;2023-02-25T04:46:40;99153.56;;;3.95;100.00
20019;BME280;10170;42.502;26.526;2023-02-25T04:49:08;99152.22;;;3.99;100.00
20019;BME280;10170;42.502;26.526;2023-02-25T04:51:37;99158.78;;;4.03;100.00
20019;BME280;10170;42.502;26.526;2023-02-25T04:54:04;99154.09;;;3.90;100.00
20019;BME280;10170;42.502;26.526;2023-02-25T04:56:31;99161.13;;;3.98;100.00
20019;BME280;10170;42.502;26.526;2023-02-25T04:58:58;99164.91;;;3.95;100.00
20019;BME280;10170;42.502;26.526;2023-02-25T05:01:24;99163.03;;;3.81;100.00
20019;BME280;10170;42.502;26.526;2023-02-25T05:03:51;99169.94;;;3.82;100.00
20019;BME280;10170;42.502;26.526;2023-02-25T05:06:27;99176.88;;;3.75;100.00
20019;BME280;10170;42.502;26.526;2023-02-25T05:08:55;99169.91;;;3.60;100.00
20019;BME280;10170;42.502;26.526;2023-02-25T05:11:27;99175.28;;;3.36;100.00
20019;BME280;10170;42.502;26.526;2023-02-25T05:13:54;99170.56;;;3.31;100.00
20019;BME280;10170;42.502;26.526;2023-02-25T05:16:21;99180.22;;;3.39;100.00
20019;BME280;10170;42.502;26.526;2023-02-25T05:18:49;99179.03;;;3.41;100.00
20019;BME280;10170;42.502;26.526;2023-02-25T05:21:19;99172.56;;;3.52;100.00
20019;BME280;10170;42.502;26.526;2023-02-25T05:23:48;99161.94;;;3.45;100.00
20019;BME280;10170;42.502;26.526;2023-02-25T05:26:16;99163.72;;;3.53;100.00
20019;BME280;10170;42.502;26.526;2023-02-25T05:28:55;99172.09;;;3.48;100.00
20019;BME280;10170;42.502;26.526;2023-02-25T05:31:23;99170.09;;;3.58;100.00
20019;BME280;10170;42.502;26.526;2023-02-25T05:33:51;99176.88;;;3.75;100.00
20019;BME280;10170;42.502;26.526;2023-02-25T05:36:18;99178.09;;;3.65;100.00
20019;BME280;10170;42.502;26.526;2023-02-25T05:38:44;99175.91;;;3.99;100.00
20019;BME280;10170;42.502;26.526;2023-02-25T05:41:11;99179.47;;;4.06;100.00
20019;BME280;10170;42.502;26.526;2023-02-25T05:43:39;99173.16;;;4.15;100.00
20019;BME280;10170;42.502;26.526;2023-02-25T05:46:07;99188.75;;;4.16;100.00
20019;BME280;10170;42.502;26.526;2023-02-25T05:48:40;99193.53;;;4.13;100.00
20019;BME280;10170;42.502;26.526;2023-02-25T05:51:10;99178.59;;;4.13;100.00
20019;BME280;10170;42.502;26.526;2023-02-25T05:53:38;99194.53;;;4.35;100.00
20019;BME280;10170;42.502;26.526;2023-02-25T05:56:07;99185.47;;;4.37;100.00
20019;BME280;10170;42.502;26.526;2023-02-25T05:58:34;99172.19;;;4.30;100.00
20019;BME280;10170;42.502;26.526;2023-02-25T06:01:08;99183.31;;;4.41;100.00
20019;BME280;10170;42.502;26.526;2023-02-25T06:03:37;99176.84;;;4.43;100.00
20019;BME280;10170;42.502;26.526;2023-02-25T06:06:05;99162.06;;;4.42;100.00
20019;BME280;10170;42.502;26.526;2023-02-25T06:08:33;99180.78;;;4.62;100.00
20019;BME280;10170;42.502;26.526;2023-02-25T06:11:00;99163.84;;;4.64;100.00
20019;BME280;10170;42.502;26.526;2023-02-25T06:13:28;99170.00;;;4.86;100.00
20019;BME280;10170;42.502;26.526;2023-02-25T06:15:54;99161.47;;;5.13;100.00
20019;BME280;10170;42.502;26.526;2023-02-25T06:18:21;99152.00;;;5.04;100.00
20019;BME280;10170;42.502;26.526;2023-02-25T06:20:48;99167.47;;;5.07;100.00
20019;BME280;10170;42.502;26.526;2023-02-25T06:23:16;99162.94;;;5.15;100.00
20019;BME280;10170;42.502;26.526;2023-02-25T06:25:43;99157.72;;;5.22;100.00
20019;BME280;10170;42.502;26.526;2023-02-25T06:28:10;99168.06;;;5.38;100.00
20019;BME280;10170;42.502;26.526;2023-02-25T06:30:40;99169.38;;;5.13;100.00
20019;BME280;10170;42.502;26.526;2023-02-25T06:33:06;99159.38;;;4.94;100.00
20019;BME280;10170;42.502;26.526;2023-02-25T06:35:33;99166.28;;;4.95;100.00
20019;BME280;10170;42.502;26.526;2023-02-25T06:38:01;99157.47;;;5.02;100.00
20019;BME280;10170;42.502;26.526;2023-02-25T06:40:28;99147.13;;;5.15;100.00
20019;BME280;10170;42.502;26.526;2023-02-25T06:42:55;99143.19;;;5.26;100.00
20019;BME280;10170;42.502;26.526;2023-02-25T06:45:21;99145.34;;;5.37;100.00
20019;BME280;10170;42.502;26.526;2023-02-25T06:47:49;99160.69;;;5.48;100.00
20019;BME280;10170;42.502;26.526;2023-02-25T06:50:16;99154.38;;;5.64;100.00
20019;BME280;10170;42.502;26.526;2023-02-25T06:52:43;99157.06;;;5.70;100.00
20019;BME280;10170;42.502;26.526;2023-02-25T06:55:10;99153.78;;;5.83;100.00
20019;BME280;10170;42.502;26.526;2023-02-25T06:57:36;99150.22;;;6.11;100.00
20019;BME280;10170;42.502;26.526;2023-02-25T07:00:04;99141.31;;;6.12;100.00
20019;BME280;10170;42.502;26.526;2023-02-25T07:02:31;99134.66;;;6.16;100.00
20019;BME280;10170;42.502;26.526;2023-02-25T07:04:58;99135.88;;;6.20;100.00
20019;BME280;10170;42.502;26.526;2023-02-25T07:07:26;99135.50;;;6.02;100.00
20019;BME280;10170;42.502;26.526;2023-02-25T07:09:53;99140.69;;;6.10;100.00
20019;BME280;10170;42.502;26.526;2023-02-25T07:12:20;99136.16;;;6.25;100.00
20019;BME280;10170;42.502;26.526;2023-02-25T07:14:47;99135.03;;;6.41;100.00
20019;BME280;10170;42.502;26.526;2023-02-25T07:17:15;99126.16;;;6.49;100.00
20019;BME280;10170;42.502;26.526;2023-02-25T07:19:41;99120.25;;;6.47;100.00
20019;BME280;10170;42.502;26.526;2023-02-25T07:22:13;99124.94;;;6.79;100.00
20019;BME280;10170;42.502;26.526;2023-02-25T07:24:41;99105.53;;;6.99;100.00
20019;BME280;10170;42.502;26.526;2023-02-25T07:27:08;99104.63;;;7.20;100.00
20019;BME280;10170;42.502;26.526;2023-02-25T07:29:35;99106.28;;;7.34;100.00
20019;BME280;10170;42.502;26.526;2023-02-25T07:32:02;99066.56;;;7.21;100.00
20019;BME280;10170;42.502;26.526;2023-02-25T07:34:29;99103.28;;;7.50;100.00
20019;BME280;10170;42.502;26.526;2023-02-25T07:36:56;99108.00;;;7.68;100.00
20019;BME280;10170;42.502;26.526;2023-02-25T07:39:23;99100.16;;;7.33;100.00
20019;BME280;10170;42.502;26.526;2023-02-25T07:41:50;99104.16;;;7.70;100.00
20019;BME280;10170;42.502;26.526;2023-02-25T07:44:16;99112.53;;;7.87;100.00
20019;BME280;10170;42.502;26.526;2023-02-25T07:46:43;99094.59;;;7.89;100.00
20019;BME280;10170;42.502;26.526;2023-02-25T07:49:10;99093.38;;;7.72;100.00
20019;BME280;10170;42.502;26.526;2023-02-25T07:51:37;99096.84;;;7.98;100.00
20019;BME280;10170;42.502;26.526;2023-02-25T07:54:04;99092.59;;;8.17;100.00
20019;BME280;10170;42.502;26.526;2023-02-25T07:56:31;99095.66;;;8.53;100.00
20019;BME280;10170;42.502;26.526;2023-02-25T07:58:58;99072.59;;;8.53;100.00
20019;BME280;10170;42.502;26.526;2023-02-25T08:01:30;99077.91;;;8.53;100.00
20019;BME280;10170;42.502;26.526;2023-02-25T08:04:02;99075.63;;;8.83;100.00
20019;BME280;10170;42.502;26.526;2023-02-25T08:06:30;99061.91;;;8.99;100.00
20019;BME280;10170;42.502;26.526;2023-02-25T08:08:57;99072.47;;;9.12;100.00
20019;BME280;10170;42.502;26.526;2023-02-25T08:11:24;99066.94;;;9.83;100.00
20019;BME280;10170;42.502;26.526;2023-02-25T08:13:52;99057.13;;;10.57;100.00
20019;BME280;10170;42.502;26.526;2023-02-25T08:16:20;99072.75;;;10.90;100.00
20019;BME280;10170;42.502;26.526;2023-02-25T08:18:48;99083.38;;;10.72;100.00
20019;BME280;10170;42.502;26.526;2023-02-25T08:21:16;99093.22;;;10.22;100.00
20019;BME280;10170;42.502;26.526;2023-02-25T08:23:44;99087.81;;;10.10;100.00
20019;BME280;10170;42.502;26.526;2023-02-25T08:26:10;99097.19;;;10.13;100.00
20019;BME280;10170;42.502;26.526;2023-02-25T08:28:37;99100.88;;;10.36;100.00
20019;BME280;10170;42.502;26.526;2023-02-25T08:31:07;99099.88;;;10.31;100.00
20019;BME280;10170;42.502;26.526;2023-02-25T08:33:41;99094.53;;;10.80;100.00
20019;BME280;10170;42.502;26.526;2023-02-25T08:36:15;99095.78;;;11.14;100.00
20019;BME280;10170;42.502;26.526;2023-02-25T08:38:42;99090.97;;;11.04;100.00
20019;BME280;10170;42.502;26.526;2023-02-25T08:41:10;99085.03;;;11.20;100.00
20019;BME280;10170;42.502;26.526;2023-02-25T08:43:37;99057.28;;;11.46;100.00
20019;BME280;10170;42.502;26.526;2023-02-25T08:46:04;99063.25;;;11.59;100.00
20019;BME280;10170;42.502;26.526;2023-02-25T08:48:33;99055.19;;;12.19;100.00
20019;BME280;10170;42.502;26.526;2023-02-25T08:51:04;99055.41;;;12.17;100.00
20019;BME280;10170;42.502;26.526;2023-02-25T08:53:38;99057.88;;;12.65;100.00
20019;BME280;10170;42.502;26.526;2023-02-25T08:56:07;99058.53;;;13.63;100.00
20019;BME280;10170;42.502;26.526;2023-02-25T08:58:34;99066.22;;;13.31;100.00
20019;BME280;10170;42.502;26.526;2023-02-25T09:01:09;99057.47;;;13.36;100.00
20019;BME280;10170;42.502;26.526;2023-02-25T09:03:44;99075.84;;;14.22;100.00
20019;BME280;10170;42.502;26.526;2023-02-25T09:06:25;99083.84;;;14.33;100.00
20019;BME280;10170;42.502;26.526;2023-02-25T09:08:55;99089.06;;;13.67;100.00
20019;BME280;10170;42.502;26.526;2023-02-25T09:11:23;99078.09;;;13.12;100.00
20019;BME280;10170;42.502;26.526;2023-02-25T09:13:52;99065.59;;;13.41;100.00
20019;BME280;10170;42.502;26.526;2023-02-25T09:16:19;99066.50;;;13.46;100.00
20019;BME280;10170;42.502;26.526;2023-02-25T09:18:47;99069.63;;;13.55;100.00
20019;BME280;10170;42.502;26.526;2023-02-25T09:21:16;99070.59;;;13.37;100.00
20019;BME280;10170;42.502;26.526;2023-02-25T09:23:43;99064.38;;;14.21;100.00
20019;BME280;10170;42.502;26.526;2023-02-25T09:26:13;99064.75;;;14.13;100.00
20019;BME280;10170;42.502;26.526;2023-02-25T09:28:40;99050.03;;;14.27;100.00
20019;BME280;10170;42.502;26.526;2023-02-25T09:31:07;99062.03;;;14.79;100.00
20019;BME280;10170;42.502;26.526;2023-02-25T09:33:35;99044.38;;;14.78;100.00
20019;BME280;10170;42.502;26.526;2023-02-25T09:36:14;99046.34;;;14.88;100.00
20019;BME280;10170;42.502;26.526;2023-02-25T09:38:42;99039.13;;;14.67;100.00
20019;BME280;10170;42.502;26.526;2023-02-25T09:44:01;99016.63;;;13.80;100.00
20019;BME280;10170;42.502;26.526;2023-02-25T09:46:29;99013.56;;;14.21;100.00
20019;BME280;10170;42.502;26.526;2023-02-25T09:49:20;99005.84;;;14.79;100.00
20019;BME280;10170;42.502;26.526;2023-02-25T09:52:00;99007.97;;;15.74;100.00
20019;BME280;10170;42.502;26.526;2023-02-25T09:54:36;99004.88;;;15.87;100.00
20019;BME280;10170;42.502;26.526;2023-02-25T09:57:05;99007.38;;;15.99;100.00
20019;BME280;10170;42.502;26.526;2023-02-25T09:59:33;99006.31;;;16.78;100.00
20019;BME280;10170;42.502;26.526;2023-02-25T10:02:05;99002.22;;;17.32;100.00
20019;BME280;10170;42.502;26.526;2023-02-25T10:07:25;99002.53;;;17.46;100.00
20019;BME280;10170;42.502;26.526;2023-02-25T10:10:14;99000.00;;;16.52;100.00
20019;BME280;10170;42.502;26.526;2023-02-25T10:18:48;98983.75;;;17.61;100.00
20019;BME280;10170;42.502;26.526;2023-02-25T10:24:25;98974.09;;;17.90;100.00
20019;BME280;10170;42.502;26.526;2023-02-25T10:26:57;98966.56;;;17.67;100.00
20019;BME280;10170;42.502;26.526;2023-02-25T10:29:29;98953.88;;;18.13;100.00
20019;BME280;10170;42.502;26.526;2023-02-25T10:31:59;98954.66;;;18.23;100.00
20019;BME280;10170;42.502;26.526;2023-02-25T10:34:37;98953.91;;;17.98;100.00
20019;BME280;10170;42.502;26.526;2023-02-25T10:37:05;98945.75;;;18.38;100.00
20019;BME280;10170;42.502;26.526;2023-02-25T10:39:39;98924.44;;;19.15;93.69
20019;BME280;10170;42.502;26.526;2023-02-25T10:42:06;98920.25;;;18.05;98.16
20019;BME280;10170;42.502;26.526;2023-02-25T10:44:35;98920.06;;;18.75;100.00
20019;BME280;10170;42.502;26.526;2023-02-25T10:47:05;98928.81;;;18.32;100.00
20019;BME280;10170;42.502;26.526;2023-02-25T10:49:33;98925.34;;;18.22;100.00
20019;BME280;10170;42.502;26.526;2023-02-25T10:52:17;98909.59;;;19.23;92.75
20019;BME280;10170;42.502;26.526;2023-02-25T10:54:46;98910.03;;;19.73;84.47
20019;BME280;10170;42.502;26.526;2023-02-25T10:57:22;98898.47;;;18.90;86.45
20019;BME280;10170;42.502;26.526;2023-02-25T10:59:59;98893.38;;;18.10;95.14
20019;BME280;10170;42.502;26.526;2023-02-25T11:02:30;98893.31;;;18.94;100.00
20019;BME280;10170;42.502;26.526;2023-02-25T11:04:58;98896.53;;;18.37;93.47
20019;BME280;10170;42.502;26.526;2023-02-25T11:12:43;98872.28;;;19.40;86.81
20019;BME280;10170;42.502;26.526;2023-02-25T11:18:18;98845.00;;;18.64;87.90
20019;BME280;10170;42.502;26.526;2023-02-25T11:20:55;98829.81;;;19.84;84.51
20019;BME280;10170;42.502;26.526;2023-02-25T11:23:33;98822.75;;;19.26;87.14
20019;BME280;10170;42.502;26.526;2023-02-25T11:26:01;98839.69;;;19.36;83.82
20019;BME280;10170;42.502;26.526;2023-02-25T11:31:14;98829.53;;;19.18;82.22
20019;BME280;10170;42.502;26.526;2023-02-25T11:33:49;98815.66;;;19.68;84.04
20019;BME280;10170;42.502;26.526;2023-02-25T11:36:22;98813.63;;;19.84;78.25
20019;BME280;10170;42.502;26.526;2023-02-25T11:39:12;98805.59;;;19.79;79.59
20019;BME280;10170;42.502;26.526;2023-02-25T11:41:40;98799.44;;;19.45;81.32
20019;BME280;10170;42.502;26.526;2023-02-25T11:44:28;98769.81;;;19.06;86.28
20019;BME280;10170;42.502;26.526;2023-02-25T11:47:24;98790.72;;;20.05;81.06
20019;BME280;10170;42.502;26.526;2023-02-25T11:52:42;98780.53;;;19.97;80.02
20019;BME280;10170;42.502;26.526;2023-02-25T11:58:24;98785.56;;;20.69;74.33
20019;BME280;10170;42.502;26.526;2023-02-25T12:09:16;98770.66;;;21.09;70.65
20019;BME280;10170;42.502;26.526;2023-02-25T12:15:23;98764.53;;;21.04;69.50
20019;BME280;10170;42.502;26.526;2023-02-25T12:35:49;98726.19;;;22.02;65.58
20019;BME280;10170;42.502;26.526;2023-02-25T12:56:06;98646.84;;;21.38;61.44
20019;BME280;10170;42.502;26.526;2023-02-25T13:01:53;98707.44;;;21.64;61.30
20019;BME280;10170;42.502;26.526;2023-02-25T13:08:17;98696.75;;;21.00;63.53
20019;BME280;10170;42.502;26.526;2023-02-25T13:32:48;98662.84;;;20.38;56.27
20019;BME280;10170;42.502;26.526;2023-02-25T13:35:39;98681.53;;;20.53;54.86
20019;BME280;10170;42.502;26.526;2023-02-25T14:16:55;98686.28;;;19.35;58.04
20019;BME280;10170;42.502;26.526;2023-02-25T14:31:08;98667.84;;;18.89;59.35
20019;BME280;10170;42.502;26.526;2023-02-25T14:44:28;98642.09;;;18.50;60.49
20019;BME280;10170;42.502;26.526;2023-02-25T14:47:10;98650.06;;;18.60;60.55
20019;BME280;10170;42.502;26.526;2023-02-25T14:49:54;98667.09;;;18.50;61.25
20019;BME280;10170;42.502;26.526;2023-02-25T15:09:37;98676.78;;;18.08;63.30
20019;BME280;10170;42.502;26.526;2023-02-25T15:15:23;98678.66;;;18.12;63.16
20019;BME280;10170;42.502;26.526;2023-02-25T15:20:58;98691.63;;;17.95;63.47
20019;BME280;10170;42.502;26.526;2023-02-25T15:23:47;98688.91;;;18.00;63.09
20019;BME280;10170;42.502;26.526;2023-02-25T15:28:49;98682.63;;;17.66;64.39
20019;BME280;10170;42.502;26.526;2023-02-25T15:31:32;98691.78;;;17.60;64.97
20019;BME280;10170;42.502;26.526;2023-02-25T15:39:51;98696.66;;;17.48;66.09
20019;BME280;10170;42.502;26.526;2023-02-25T15:56:28;98726.53;;;16.86;71.05
20019;BME280;10170;42.502;26.526;2023-02-25T15:58:57;98735.97;;;16.89;71.65
20019;BME280;10170;42.502;26.526;2023-02-25T16:01:38;98738.06;;;16.81;72.07
20019;BME280;10170;42.502;26.526;2023-02-25T16:04:40;98746.41;;;16.70;73.14
20019;BME280;10170;42.502;26.526;2023-02-25T16:07:19;98759.00;;;16.64;74.75
20019;BME280;10170;42.502;26.526;2023-02-25T16:09:54;98751.47;;;16.56;74.87
20019;BME280;10170;42.502;26.526;2023-02-25T16:12:23;98767.06;;;16.54;75.64
20019;BME280;10170;42.502;26.526;2023-02-25T16:14:51;98774.78;;;16.46;77.40
20019;BME280;10170;42.502;26.526;2023-02-25T16:17:24;98774.00;;;16.45;77.97
20019;BME280;10170;42.502;26.526;2023-02-25T16:19:59;98779.88;;;16.42;78.77
20019;BME280;10170;42.502;26.526;2023-02-25T16:22:28;98781.16;;;16.25;80.72
20019;BME280;10170;42.502;26.526;2023-02-25T16:24:57;98784.16;;;16.38;81.28
20019;BME280;10170;42.502;26.526;2023-02-25T16:27:40;98755.38;;;16.19;81.71
20019;BME280;10170;42.502;26.526;2023-02-25T16:30:25;98799.63;;;16.16;84.35
20019;BME280;10170;42.502;26.526;2023-02-25T16:33:07;98798.84;;;16.21;85.28
20019;BME280;10170;42.502;26.526;2023-02-25T16:35:46;98805.28;;;16.20;85.38
20019;BME280;10170;42.502;26.526;2023-02-25T16:38:37;98803.09;;;16.12;87.14
20019;BME280;10170;42.502;26.526;2023-02-25T16:41:06;98811.09;;;16.02;88.91
20019;BME280;10170;42.502;26.526;2023-02-25T16:43:36;98829.13;;;16.11;89.45
20019;BME280;10170;42.502;26.526;2023-02-25T16:46:09;98817.56;;;16.01;90.54
20019;BME280;10170;42.502;26.526;2023-02-25T16:48:53;98801.34;;;15.80;92.88
20019;BME280;10170;42.502;26.526;2023-02-25T16:51:24;98826.31;;;15.86;94.47
20019;BME280;10170;42.502;26.526;2023-02-25T16:53:55;98831.69;;;15.86;95.57
20019;BME280;10170;42.502;26.526;2023-02-25T16:56:26;98833.22;;;15.77;96.45
20019;BME280;10170;42.502;26.526;2023-02-25T16:59:13;98835.91;;;15.77;97.07
20019;BME280;10170;42.502;26.526;2023-02-25T17:04:17;98849.75;;;15.64;97.83